Latest Weather Observations for Sydney Airport

IDN60901

Issued at 6:41 pm EDT Thursday 2 April 2015 (issued every 10 minutes, with the page automatically refreshed every 10 minutes)

About weather observations | Map of Sydney area stations | Latest observations for Sydney area | Other Formats
Station Details ID: 066037 Name: SYDNEY AIRPORT AMO Lat: -33.95 Lon: 151.17 Height: 6.0 m
Data from the previous 72 hours. | See also: Recent months at Sydney Airport
Date/Time
EDT
Tmp

°C
App
Tmp
°C
Dew
Point
°C
Rel
Hum
%
Delta-T

°C
Wind Press
QNH
hPa
Press
MSL
hPa
Rain
since
9 am
mm
Dir
 
Spd
km/h
Gust
km/h
Spd
kts
Gust
kts
02/06:30pm 25.3 23.9 18.0 64 4.6 NE 22 28 12 15 1015.9 1015.9 0.0
02/05:30pm 26.4 25.3 17.3 57 5.7 NE 19 24 10 13 1016.1 1016.1 0.0
02/05:00pm 26.2 24.2 17.4 58 5.5 NE 24 28 13 15 1015.7 1015.7 0.0
02/04:30pm 29.2 27.5 17.3 48 7.5 NE 22 26 12 14 1015.4 1015.4 0.0
02/04:00pm 29.4 28.2 16.2 44 8.2 NNE 17 24 9 13 1015.5 1015.5 0.0
02/03:30pm 30.5 30.5 14.3 37 9.8 NW 7 11 4 6 1015.8 1015.8 0.0
02/03:00pm 30.1 29.8 14.4 38 9.5 NW 9 13 5 7 1016.0 1016.0 0.0
02/02:30pm 29.8 29.7 14.9 40 9.1 NW 9 11 5 6 1016.3 1016.3 0.0
02/02:00pm 28.6 27.8 14.1 41 8.7 NW 11 15 6 8 1016.5 1016.5 0.0
02/01:30pm 28.1 27.0 14.2 42 8.3 NW 13 17 7 9 1016.8 1016.8 0.0
02/01:00pm 28.6 28.1 13.8 40 8.8 NW 9 15 5 8 1017.2 1017.2 0.0
02/12:30pm 27.7 27.2 15.0 45 7.7 NW 11 15 6 8 1017.7 1017.7 0.0
02/12:00pm 26.9 26.4 15.8 50 6.8 NW 13 19 7 10 1017.9 1017.9 0.0
02/11:30am 26.1 25.7 16.3 54 6.0 NW 13 19 7 10 1018.3 1018.3 0.0
02/11:00am 25.5 25.3 16.6 58 5.5 NW 13 17 7 9 1018.4 1018.4 0.0
02/10:00am 22.8 22.6 16.6 68 3.8 NW 13 17 7 9 1018.7 1018.7 0.0
02/09:30am 21.8 22.0 16.7 73 3.1 NW 11 15 6 8 1018.8 1018.8 0.0
02/09:00am 21.3 21.1 16.7 75 2.8 NNW 13 15 7 8 1018.8 1018.8 0.0
02/08:30am 20.9 21.2 17.1 79 2.3 NNW 11 15 6 8 1018.5 1018.5 0.0
02/08:00am 20.6 20.4 16.8 79 2.3 N 13 15 7 8 1018.1 1018.1 0.0
02/07:30am 20.5 20.7 16.7 79 2.3 NW 11 15 6 8 1018.0 1018.0 0.0
02/07:00am 19.9 19.9 16.2 79 2.2 NNW 11 11 6 6 1017.8 1017.8 0.0
02/06:30am 20.6 19.9 16.3 76 2.6 NNW 15 22 8 12 1017.6 1017.6 0.0
02/05:30am 19.5 20.2 16.1 81 2.0 NW 7 9 4 5 1017.2 1017.2 0.0
02/05:00am 19.5 20.0 16.5 83 1.8 NW 9 11 5 6 1017.2 1017.2 0.0
02/04:30am 19.8 20.6 16.3 80 2.1 NNE 7 9 4 5 1017.3 1017.3 0.0
02/04:00am 19.8 20.7 16.6 82 1.9 WNW 7 9 4 5 1017.5 1017.5 0.0
02/03:30am 19.6 20.8 16.8 84 1.7 N 6 7 3 4 1017.7 1017.7 0.0
02/03:00am 19.6 20.3 17.0 85 1.6 NNE 9 9 5 5 1018.0 1018.0 0.0
02/02:30am 20.2 21.1 16.7 80 2.1 NNE 7 7 4 4 1018.4 1018.4 0.0
02/02:00am 20.9 21.2 17.0 78 2.4 NNE 11 13 6 7 1018.9 1018.9 0.0
02/01:30am 20.9 21.7 17.3 80 2.2 N 9 9 5 5 1019.1 1019.1 0.0
02/01:00am 21.5 22.3 17.4 77 2.5 N 9 11 5 6 1019.4 1019.4 0.0
02/12:30am 21.1 22.1 17.7 81 2.1 N 9 11 5 6 1019.8 1019.8 0.0
 
Date/Time
EDT
Tmp

°C
App
Tmp
°C
Dew
Point
°C
Rel
Hum
%
Delta-T

°C
Wind Press
QNH
hPa
Press
MSL
hPa
Rain
since
9 am
mm
Dir
 
Spd
km/h
Gust
km/h
Spd
kts
Gust
kts
01/11:30pm 22.5 23.4 17.6 74 3.0 N 9 11 5 6 1020.1 1020.1 0.0
01/11:00pm 23.2 22.5 17.4 70 3.6 NNE 17 20 9 11 1020.1 1020.1 0.0
01/10:30pm 23.4 22.2 17.6 70 3.6 NNE 20 26 11 14 1020.3 1020.3 0.0
01/10:00pm 23.9 22.2 18.0 69 3.7 NNE 24 32 13 17 1020.3 1020.3 0.0
01/09:30pm 23.7 22.0 18.1 71 3.5 NNE 24 32 13 17 1020.2 1020.2 0.0
01/09:00pm 23.8 21.6 17.9 69 3.7 NNE 26 35 14 19 1020.0 1020.0 0.0
01/08:30pm 23.8 21.8 18.2 71 3.5 NNE 26 35 14 19 1020.0 1020.0 0.0
01/08:00pm 23.9 22.2 18.2 70 3.6 NNE 24 28 13 15 1019.7 1019.7 0.0
01/07:30pm 24.0 22.2 17.9 68 3.8 NE 24 30 13 16 1019.8 1019.8 0.0
01/07:00pm 24.2 22.1 18.1 68 3.8 NNE 26 32 14 17 1019.8 1019.8 0.0
01/06:30pm 24.5 22.2 17.6 65 4.3 NNE 26 33 14 18 1019.7 1019.7 0.0
01/06:00pm 25.0 21.9 17.4 62 4.7 NNE 30 37 16 20 1019.8 1019.8 0.0
01/05:30pm 25.7 24.0 17.2 59 5.3 NNE 22 28 12 15 1019.7 1019.7 0.0
01/05:00pm 25.9 22.7 16.3 55 5.9 NNE 28 35 15 19 1019.5 1019.5 0.0
01/04:30pm 26.3 23.3 16.8 56 5.9 NNE 28 32 15 17 1019.7 1019.7 0.0
01/04:00pm 26.8 25.6 17.4 56 5.9 NE 20 26 11 14 1019.9 1019.9 0.0
01/03:30pm 25.1 24.0 17.7 63 4.6 NNE 20 28 11 15 1020.3 1020.3 0.0
01/03:00pm 24.3 23.1 17.4 65 4.3 NE 20 28 11 15 1020.8 1020.8 0.0
01/02:30pm 26.1 23.6 16.1 54 6.1 NE 24 33 13 18 1021.2 1021.2 0.0
01/02:00pm 26.1 23.7 16.5 55 5.9 NNE 24 32 13 17 1021.5 1021.5 0.0
01/01:30pm 25.1 22.1 15.9 56 5.6 NE 26 35 14 19 1022.1 1022.1 0.0
01/01:00pm 25.8 22.8 15.9 54 6.0 NNE 26 35 14 19 1022.6 1022.6 0.0
01/12:30pm 24.8 23.8 16.5 60 5.1 NNE 17 26 9 14 1023.4 1023.4 0.0
01/12:00pm 25.1 25.0 17.0 60 5.0 NNE 13 19 7 10 1023.8 1023.8 0.0
01/11:30am 24.0 23.7 17.4 66 4.1 N 15 20 8 11 1024.2 1024.2 0.0
01/11:00am 24.4 23.9 17.8 66 4.1 N 17 30 9 16 1024.3 1024.3 0.0
01/10:30am 23.5 24.3 18.2 72 3.3 N 11 13 6 7 1024.6 1024.6 0.0
01/10:00am 23.1 24.4 18.5 75 2.9 WNW 9 13 5 7 1024.9 1024.9 0.0
01/09:30am 22.3 23.4 18.1 77 2.6 NW 9 13 5 7 1025.1 1025.1 0.0
01/09:00am 20.9 21.9 17.8 82 1.9 NW 9 13 5 7 1025.0 1025.0 21.6
01/08:30am 20.4 22.0 17.8 85 1.6 N 6 7 3 4 1024.7 1024.7 21.6
01/08:00am 19.4 20.7 17.6 89 1.1 WNW 7 9 4 5 1024.4 1024.4 21.6
01/07:30am 18.4 19.2 17.2 93 0.7 NW 9 11 5 6 1024.2 1024.2 21.6
01/07:00am 19.2 20.6 17.7 91 0.9 NW 7 11 4 6 1024.3 1024.3 21.6
01/06:30am 19.1 20.2 18.0 93 0.7 NW 9 13 5 7 1024.1 1024.1 21.6
01/06:21am 18.4 19.2 17.4 94 0.6 W 9 13 5 7 1024.0 1024.0 21.6
01/06:00am 18.5 19.5 17.7 95 0.5 NW 9 13 5 7 1024.0 1024.0 21.6
01/05:30am 18.0 19.1 17.2 95 0.5 SSE 7 9 4 5 1023.9 1023.9 21.2
01/05:00am 17.7 18.4 17.0 96 0.4 SW 9 13 5 7 1023.6 1023.6 21.2
01/04:30am 17.9 19.0 17.2 96 0.4 WSW 7 11 4 6 1023.7 1023.7 21.2
01/04:00am 18.1 18.6 17.4 96 0.4 WNW 11 13 6 7 1023.9 1023.9 21.2
01/03:30am 18.4 19.2 17.4 94 0.6 NW 9 11 5 6 1024.1 1024.1 21.2
01/03:00am 18.6 19.1 17.4 93 0.7 NW 11 15 6 8 1024.3 1024.3 20.8
01/02:30am 18.9 19.6 17.1 89 1.1 SSW 9 13 5 7 1024.5 1024.5 19.6
01/02:00am 19.0 19.6 17.7 92 0.8 SSW 11 13 6 7 1024.6 1024.6 19.6
01/01:30am 18.3 19.0 17.0 92 0.8 SW 9 11 5 6 1025.0 1025.0 19.6
01/01:00am 18.4 19.0 16.7 90 1.0 WSW 9 11 5 6 1025.2 1025.2 19.6
01/12:30am 18.6 18.9 16.9 90 1.0 WSW 11 11 6 6 1025.5 1025.5 19.6
01/12:00am 18.9 19.7 17.4 91 0.9 SW 9 9 5 5 1025.4 1025.4 19.6
 
Date/Time
EDT
Tmp

°C
App
Tmp
°C
Dew
Point
°C
Rel
Hum
%
Delta-T

°C
Wind Press
QNH
hPa
Press
MSL
hPa
Rain
since
9 am
mm
Dir
 
Spd
km/h
Gust
km/h
Spd
kts
Gust
kts
31/11:30pm 19.5 20.3 17.2 86 1.4 SW 9 9 5 5 1025.6 1025.6 19.6
31/11:00pm 20.4 22.9 17.3 82 1.9 CALM 0 9 0 5 1025.9 1025.9 19.6
31/10:30pm 20.7 23.0 16.7 78 2.4 CALM 0 0 0 0 1026.1 1026.1 19.6
31/10:00pm 20.7 21.9 15.8 73 2.9 N 4 7 2 4 1026.1 1026.1 19.6
31/09:30pm 20.4 21.3 16.0 76 2.6 ENE 6 7 3 4 1026.0 1026.0 19.6
31/09:00pm 20.5 20.9 16.3 77 2.5 E 9 11 5 6 1025.9 1025.9 19.6
31/08:30pm 20.3 20.4 16.6 79 2.2 E 11 13 6 7 1025.7 1025.7 19.6
31/08:00pm 20.4 20.5 16.6 79 2.3 ESE 11 13 6 7 1025.5 1025.5 19.6
31/07:30pm 20.8 20.5 16.5 76 2.6 ESE 13 17 7 9 1025.2 1025.2 19.6
31/07:00pm 21.0 20.6 16.3 74 2.8 SE 13 17 7 9 1025.0 1025.0 19.6
31/06:30pm 21.4 20.3 16.4 73 3.0 SE 17 20 9 11 1025.1 1025.1 19.6
31/06:00pm 22.2 21.4 16.2 69 3.6 SE 15 19 8 10 1024.9 1024.9 19.6
31/05:30pm 22.4 21.3 16.3 68 3.7 SE 17 20 9 11 1024.7 1024.7 19.6
31/05:00pm 22.9 20.3 13.3 54 5.5 SE 19 24 10 13 1024.7 1024.7 19.6
31/04:30pm 23.4 21.3 14.6 57 5.2 SE 19 22 10 12 1024.7 1024.7 19.6
31/04:00pm 22.5 21.0 16.2 67 3.8 SSE 19 22 10 12 1024.8 1024.8 19.6
31/03:30pm 21.9 22.0 18.4 80 2.2 S 15 19 8 10 1025.0 1025.0 19.6
31/03:00pm 21.1 21.3 17.7 81 2.1 S 13 17 7 9 1025.0 1025.0 19.6
31/02:30pm 20.4 20.7 17.1 81 2.0 SSW 11 13 6 7 1025.2 1025.2 19.6
31/02:00pm 20.6 21.8 18.3 87 1.4 SW 9 13 5 7 1025.5 1025.5 19.6
31/01:30pm 20.3 21.6 18.5 89 1.1 W 9 15 5 8 1025.7 1025.7 19.6
31/01:10pm 19.7 21.1 17.9 89 1.1 NNW 7 11 4 6 1026.0 1026.0 19.6
31/01:00pm 19.8 20.2 18.2 90 1.0 NE 13 17 7 9 1026.2 1026.2 18.8
31/12:51pm 20.1 20.7 17.6 85 1.5 NE 11 17 6 9 1026.4 1026.4 18.4
31/12:30pm 20.4 21.5 18.0 86 1.5 ESE 9 11 5 6 1026.4 1026.4 18.4
31/12:19pm 20.3 21.4 18.0 87 1.4 S 9 13 5 7 1026.6 1026.6 18.4
31/12:07pm 19.6 20.2 17.6 88 1.2 S 11 19 6 10 1026.7 1026.7 18.4
31/12:00pm 19.3 20.3 17.7 90 1.0 SSW 9 20 5 11 1026.7 1026.7 18.4
31/11:52am 18.8 19.3 17.5 92 0.8 SE 11 22 6 12 1026.8 1026.8 18.4
31/11:47am 19.1 19.7 17.6 91 0.9 NE 11 22 6 12 1026.8 1026.8 18.4
31/11:39am 18.9 17.6 16.7 87 1.3 ENE 19 30 10 16 1026.8 1026.8 14.6
31/11:32am 18.9 16.9 17.4 91 0.9 SSE 24 35 13 19 1027.1 1027.1 2.8
31/11:30am 20.0 17.8 17.9 88 1.3 S 26 35 14 19 1027.1 1027.1 0.8
31/11:28am 20.9 18.7 18.7 87 1.4 S 28 35 15 19 1026.9 1026.9 0.6
31/11:25am 20.7 18.1 18.6 88 1.3 S 30 35 16 19 1026.5 1026.5 0.6
31/11:22am 20.7 18.5 18.8 89 1.2 S 28 37 15 20 1026.4 1026.4 0.2
31/11:00am 21.3 18.5 18.1 82 2.0 S 30 35 16 19 1026.5 1026.5 0.0
31/10:30am 21.2 19.7 18.5 84 1.7 S 24 30 13 16 1026.7 1026.7 0.0
31/10:00am 21.3 20.0 18.1 82 2.0 SSE 22 30 12 16 1026.8 1026.8 0.0
31/09:30am 21.3 20.8 17.9 81 2.1 SSE 17 24 9 13 1026.5 1026.5 0.0
31/09:00am 21.7 20.5 17.5 77 2.6 SSE 20 26 11 14 1026.1 1026.1 10.4
31/08:30am 21.0 20.1 17.7 81 2.0 SSE 19 24 10 13 1025.7 1025.7 10.4
31/08:00am 20.8 20.2 17.5 81 2.0 SE 17 19 9 10 1025.5 1025.5 10.4
31/07:30am 20.4 20.5 17.4 83 1.8 SSE 13 17 7 9 1025.3 1025.3 10.4
31/07:00am 20.0 20.5 17.5 85 1.5 S 11 15 6 8 1025.0 1025.0 10.4
31/06:30am 19.0 21.6 17.5 91 0.9 CALM 0 0 0 0 1024.8 1024.8 10.2
31/06:00am 18.9 20.2 17.2 90 1.0 SSW 6 7 3 4 1024.6 1024.6 10.2
31/05:30am 18.8 20.4 17.0 89 1.1 W 4 6 2 3 1024.3 1024.3 10.2
31/05:00am 18.9 20.2 17.1 89 1.1 WNW 6 7 3 4 1024.2 1024.2 10.2
31/04:30am 19.0 20.1 17.0 88 1.2 W 7 9 4 5 1024.4 1024.4 10.2
31/04:00am 18.8 18.7 17.0 89 1.1 WSW 13 17 7 9 1024.5 1024.5 10.2
31/03:30am 18.9 19.5 16.9 88 1.2 WNW 9 9 5 5 1024.7 1024.7 10.2
31/03:00am 19.2 20.3 16.5 84 1.6 NNW 6 7 3 4 1024.9 1024.9 10.2
31/02:30am 19.4 20.5 16.6 84 1.7 N 6 7 3 4 1025.0 1025.0 10.2
31/02:00am 19.4 21.7 16.7 84 1.6 CALM 0 4 0 2 1025.3 1025.3 10.2
31/01:30am 19.7 19.9 16.7 83 1.8 N 11 11 6 6 1025.4 1025.4 10.2
31/01:00am 19.8 22.0 16.6 82 1.9 CALM 0 0 0 0 1025.5 1025.5 10.2
31/12:30am 19.2 20.7 17.7 91 0.9 N 6 7 3 4 1025.2 1025.2 10.2
31/12:00am 19.8 20.1 17.8 88 1.2 NNE 13 17 7 9 1025.3 1025.3 10.2
 
Date/Time
EDT
Tmp

°C
App
Tmp
°C
Dew
Point
°C
Rel
Hum
%
Delta-T

°C
Wind Press
QNH
hPa
Press
MSL
hPa
Rain
since
9 am
mm
Dir
 
Spd
km/h
Gust
km/h
Spd
kts
Gust
kts
30/11:30pm 21.3 21.1 16.8 75 2.7 ESE 13 17 7 9 1025.5 1025.5 10.0
30/11:00pm 20.7 20.6 16.9 79 2.3 SE 13 15 7 8 1025.3 1025.3 10.0
30/10:30pm 21.1 21.9 17.3 79 2.3 SE 9 11 5 6 1025.2 1025.2 10.0
30/10:00pm 21.2 21.8 16.7 75 2.7 SSE 9 11 5 6 1025.1 1025.1 10.0
30/09:30pm 21.2 21.6 16.4 74 2.9 SE 9 9 5 5 1025.1 1025.1 10.0
30/09:00pm 21.2 21.5 16.0 72 3.1 ESE 9 11 5 6 1025.1 1025.1 10.0
30/08:30pm 21.3 21.7 16.3 73 3.0 ESE 9 9 5 5 1025.0 1025.0 10.0
30/08:00pm 21.2 22.0 16.4 74 2.9 ESE 7 9 4 5 1024.6 1024.6 10.0
30/07:30pm 21.4 21.4 16.2 72 3.1 ENE 11 15 6 8 1024.2 1024.2 10.0
30/07:00pm 21.9 22.2 16.1 69 3.5 E 9 13 5 7 1024.0 1024.0 10.0

Latest Capital City Observations: Canberra | Sydney | Melbourne | Brisbane | Adelaide | Perth | Hobart | Darwin

Other Formats:

Comma delimited format used in spreadsheet applications
http://www.bom.gov.au/fwo/IDN60901/IDN60901.94767.axf

JavaScript Object Notation format (JSON) in row-major order
http://www.bom.gov.au/fwo/IDN60901/IDN60901.94767.json